sensor_id;sensor_type;location;lat;lon;timestamp;P1;durP1;ratioP1;P2;durP2;ratioP2
35150;SDS011;55720;51.972;4.624;2023-04-21T00:02:22;35.80;;;19.42;;
35150;SDS011;55720;51.972;4.624;2023-04-21T00:04:48;34.30;;;19.95;;
35150;SDS011;55720;51.972;4.624;2023-04-21T00:07:13;30.77;;;19.13;;
35150;SDS011;55720;51.972;4.624;2023-04-21T00:09:40;32.28;;;19.85;;
35150;SDS011;55720;51.972;4.624;2023-04-21T00:12:05;34.00;;;19.88;;
35150;SDS011;55720;51.972;4.624;2023-04-21T00:14:31;31.45;;;19.60;;
35150;SDS011;55720;51.972;4.624;2023-04-21T00:16:56;36.42;;;20.05;;
35150;SDS011;55720;51.972;4.624;2023-04-21T00:19:24;35.85;;;19.95;;
35150;SDS011;55720;51.972;4.624;2023-04-21T00:21:49;34.08;;;20.05;;
35150;SDS011;55720;51.972;4.624;2023-04-21T00:24:15;37.88;;;20.73;;
35150;SDS011;55720;51.972;4.624;2023-04-21T00:26:40;35.63;;;19.75;;
35150;SDS011;55720;51.972;4.624;2023-04-21T00:29:05;36.15;;;20.13;;
35150;SDS011;55720;51.972;4.624;2023-04-21T00:31:31;37.67;;;20.65;;
35150;SDS011;55720;51.972;4.624;2023-04-21T00:33:56;35.72;;;19.90;;
35150;SDS011;55720;51.972;4.624;2023-04-21T00:36:21;36.95;;;21.30;;
35150;SDS011;55720;51.972;4.624;2023-04-21T00:38:48;35.88;;;19.50;;
35150;SDS011;55720;51.972;4.624;2023-04-21T00:41:14;37.17;;;20.45;;
35150;SDS011;55720;51.972;4.624;2023-04-21T00:43:59;42.50;;;19.95;;
35150;SDS011;55720;51.972;4.624;2023-04-21T00:46:28;39.25;;;20.40;;
35150;SDS011;55720;51.972;4.624;2023-04-21T00:48:53;38.55;;;20.80;;
35150;SDS011;55720;51.972;4.624;2023-04-21T00:51:19;40.85;;;20.73;;
35150;SDS011;55720;51.972;4.624;2023-04-21T00:53:44;39.28;;;21.13;;
35150;SDS011;55720;51.972;4.624;2023-04-21T00:56:10;43.78;;;21.80;;
35150;SDS011;55720;51.972;4.624;2023-04-21T00:58:36;38.03;;;21.08;;
35150;SDS011;55720;51.972;4.624;2023-04-21T01:01:06;45.22;;;21.50;;
35150;SDS011;55720;51.972;4.624;2023-04-21T01:03:31;43.95;;;21.58;;
35150;SDS011;55720;51.972;4.624;2023-04-21T01:05:56;39.92;;;20.27;;
35150;SDS011;55720;51.972;4.624;2023-04-21T01:08:22;38.65;;;20.48;;
35150;SDS011;55720;51.972;4.624;2023-04-21T01:10:47;38.25;;;20.27;;
35150;SDS011;55720;51.972;4.624;2023-04-21T01:13:13;41.17;;;21.13;;
35150;SDS011;55720;51.972;4.624;2023-04-21T01:15:38;43.40;;;21.95;;
35150;SDS011;55720;51.972;4.624;2023-04-21T01:18:03;47.97;;;21.05;;
35150;SDS011;55720;51.972;4.624;2023-04-21T01:20:29;43.38;;;20.73;;
35150;SDS011;55720;51.972;4.624;2023-04-21T01:22:54;44.83;;;22.23;;
35150;SDS011;55720;51.972;4.624;2023-04-21T01:25:19;40.92;;;22.00;;
35150;SDS011;55720;51.972;4.624;2023-04-21T01:27:49;42.60;;;21.42;;
35150;SDS011;55720;51.972;4.624;2023-04-21T01:30:16;45.33;;;21.67;;
35150;SDS011;55720;51.972;4.624;2023-04-21T01:32:42;40.67;;;21.20;;
35150;SDS011;55720;51.972;4.624;2023-04-21T01:35:07;47.22;;;21.90;;
35150;SDS011;55720;51.972;4.624;2023-04-21T01:37:33;46.15;;;21.73;;
35150;SDS011;55720;51.972;4.624;2023-04-21T01:40:00;47.78;;;22.23;;
35150;SDS011;55720;51.972;4.624;2023-04-21T01:42:29;47.10;;;21.85;;
35150;SDS011;55720;51.972;4.624;2023-04-21T01:44:55;47.60;;;21.63;;
35150;SDS011;55720;51.972;4.624;2023-04-21T01:47:21;46.35;;;22.25;;
35150;SDS011;55720;51.972;4.624;2023-04-21T01:49:47;44.50;;;22.42;;
35150;SDS011;55720;51.972;4.624;2023-04-21T01:52:13;49.72;;;22.98;;
35150;SDS011;55720;51.972;4.624;2023-04-21T01:54:38;44.20;;;21.58;;
35150;SDS011;55720;51.972;4.624;2023-04-21T01:57:03;47.92;;;22.52;;
35150;SDS011;55720;51.972;4.624;2023-04-21T01:59:30;49.40;;;23.27;;
35150;SDS011;55720;51.972;4.624;2023-04-21T02:01:56;50.28;;;23.77;;
35150;SDS011;55720;51.972;4.624;2023-04-21T02:04:21;48.05;;;22.52;;
35150;SDS011;55720;51.972;4.624;2023-04-21T02:06:46;48.03;;;23.35;;
35150;SDS011;55720;51.972;4.624;2023-04-21T02:09:12;52.90;;;24.38;;
35150;SDS011;55720;51.972;4.624;2023-04-21T02:11:37;53.05;;;24.42;;
35150;SDS011;55720;51.972;4.624;2023-04-21T02:14:02;50.83;;;24.42;;
35150;SDS011;55720;51.972;4.624;2023-04-21T02:16:28;49.47;;;22.80;;
35150;SDS011;55720;51.972;4.624;2023-04-21T02:18:54;50.17;;;22.95;;
35150;SDS011;55720;51.972;4.624;2023-04-21T02:21:27;54.13;;;23.40;;
35150;SDS011;55720;51.972;4.624;2023-04-21T02:23:52;57.42;;;23.83;;
35150;SDS011;55720;51.972;4.624;2023-04-21T02:26:21;50.78;;;23.30;;
35150;SDS011;55720;51.972;4.624;2023-04-21T02:28:46;44.17;;;22.70;;
35150;SDS011;55720;51.972;4.624;2023-04-21T02:31:12;52.83;;;23.77;;
35150;SDS011;55720;51.972;4.624;2023-04-21T02:33:37;52.33;;;22.42;;
35150;SDS011;55720;51.972;4.624;2023-04-21T02:36:03;51.13;;;23.23;;
35150;SDS011;55720;51.972;4.624;2023-04-21T02:38:28;59.33;;;23.95;;
35150;SDS011;55720;51.972;4.624;2023-04-21T02:40:55;49.78;;;22.80;;
35150;SDS011;55720;51.972;4.624;2023-04-21T02:43:20;49.17;;;21.75;;
35150;SDS011;55720;51.972;4.624;2023-04-21T02:45:46;51.80;;;22.75;;
35150;SDS011;55720;51.972;4.624;2023-04-21T02:48:11;51.42;;;23.83;;
35150;SDS011;55720;51.972;4.624;2023-04-21T02:50:36;49.70;;;22.33;;
35150;SDS011;55720;51.972;4.624;2023-04-21T02:53:02;56.97;;;24.25;;
35150;SDS011;55720;51.972;4.624;2023-04-21T02:55:27;48.38;;;22.77;;
35150;SDS011;55720;51.972;4.624;2023-04-21T02:57:52;55.72;;;25.65;;
35150;SDS011;55720;51.972;4.624;2023-04-21T03:00:18;54.83;;;24.65;;
35150;SDS011;55720;51.972;4.624;2023-04-21T03:02:44;56.80;;;24.95;;
35150;SDS011;55720;51.972;4.624;2023-04-21T03:05:10;58.10;;;25.15;;
35150;SDS011;55720;51.972;4.624;2023-04-21T03:07:36;60.60;;;25.02;;
35150;SDS011;55720;51.972;4.624;2023-04-21T03:10:02;57.08;;;25.88;;
35150;SDS011;55720;51.972;4.624;2023-04-21T03:12:27;58.40;;;25.83;;
35150;SDS011;55720;51.972;4.624;2023-04-21T03:14:52;56.13;;;25.67;;
35150;SDS011;55720;51.972;4.624;2023-04-21T03:17:21;59.15;;;25.30;;
35150;SDS011;55720;51.972;4.624;2023-04-21T03:19:46;64.47;;;26.95;;
35150;SDS011;55720;51.972;4.624;2023-04-21T03:22:11;68.50;;;26.38;;
35150;SDS011;55720;51.972;4.624;2023-04-21T03:24:37;59.17;;;26.95;;
35150;SDS011;55720;51.972;4.624;2023-04-21T03:27:04;63.60;;;26.98;;
35150;SDS011;55720;51.972;4.624;2023-04-21T03:29:30;59.95;;;26.15;;
35150;SDS011;55720;51.972;4.624;2023-04-21T03:31:55;63.15;;;26.67;;
35150;SDS011;55720;51.972;4.624;2023-04-21T03:34:20;63.50;;;27.00;;
35150;SDS011;55720;51.972;4.624;2023-04-21T03:36:46;61.38;;;26.88;;
35150;SDS011;55720;51.972;4.624;2023-04-21T03:39:11;62.13;;;27.05;;
35150;SDS011;55720;51.972;4.624;2023-04-21T03:41:36;63.38;;;26.75;;
35150;SDS011;55720;51.972;4.624;2023-04-21T03:44:02;70.07;;;27.80;;
35150;SDS011;55720;51.972;4.624;2023-04-21T03:46:27;66.68;;;27.52;;
35150;SDS011;55720;51.972;4.624;2023-04-21T03:48:52;74.13;;;28.38;;
35150;SDS011;55720;51.972;4.624;2023-04-21T03:51:18;69.57;;;28.27;;
35150;SDS011;55720;51.972;4.624;2023-04-21T03:53:43;68.00;;;28.25;;
35150;SDS011;55720;51.972;4.624;2023-04-21T03:56:08;70.18;;;28.83;;
35150;SDS011;55720;51.972;4.624;2023-04-21T03:58:34;73.15;;;27.67;;
35150;SDS011;55720;51.972;4.624;2023-04-21T04:01:00;70.68;;;28.60;;
35150;SDS011;55720;51.972;4.624;2023-04-21T04:03:26;76.50;;;29.35;;
35150;SDS011;55720;51.972;4.624;2023-04-21T04:05:51;70.53;;;28.73;;
35150;SDS011;55720;51.972;4.624;2023-04-21T04:08:16;76.22;;;29.27;;
35150;SDS011;55720;51.972;4.624;2023-04-21T04:10:42;79.82;;;30.50;;
35150;SDS011;55720;51.972;4.624;2023-04-21T04:13:07;73.38;;;29.23;;
35150;SDS011;55720;51.972;4.624;2023-04-21T04:15:33;79.30;;;30.67;;
35150;SDS011;55720;51.972;4.624;2023-04-21T04:17:59;78.72;;;30.13;;
35150;SDS011;55720;51.972;4.624;2023-04-21T04:20:25;74.85;;;30.38;;
35150;SDS011;55720;51.972;4.624;2023-04-21T04:22:51;86.70;;;31.70;;
35150;SDS011;55720;51.972;4.624;2023-04-21T04:25:16;92.53;;;32.22;;
35150;SDS011;55720;51.972;4.624;2023-04-21T04:27:42;83.60;;;32.08;;
35150;SDS011;55720;51.972;4.624;2023-04-21T04:30:13;79.38;;;31.05;;
35150;SDS011;55720;51.972;4.624;2023-04-21T04:32:38;87.97;;;32.55;;
35150;SDS011;55720;51.972;4.624;2023-04-21T04:35:07;87.75;;;32.38;;
35150;SDS011;55720;51.972;4.624;2023-04-21T04:37:37;85.10;;;32.28;;
35150;SDS011;55720;51.972;4.624;2023-04-21T04:40:03;84.82;;;32.67;;
35150;SDS011;55720;51.972;4.624;2023-04-21T04:42:31;88.75;;;31.92;;
35150;SDS011;55720;51.972;4.624;2023-04-21T04:44:57;79.45;;;30.38;;
35150;SDS011;55720;51.972;4.624;2023-04-21T04:47:23;92.93;;;33.25;;
35150;SDS011;55720;51.972;4.624;2023-04-21T04:49:49;86.50;;;31.58;;
35150;SDS011;55720;51.972;4.624;2023-04-21T04:52:14;86.55;;;32.92;;
35150;SDS011;55720;51.972;4.624;2023-04-21T04:54:39;86.85;;;32.10;;
35150;SDS011;55720;51.972;4.624;2023-04-21T04:57:05;84.90;;;33.25;;
35150;SDS011;55720;51.972;4.624;2023-04-21T04:59:30;93.30;;;34.67;;
35150;SDS011;55720;51.972;4.624;2023-04-21T05:01:55;84.72;;;32.30;;
35150;SDS011;55720;51.972;4.624;2023-04-21T05:04:21;87.40;;;32.38;;
35150;SDS011;55720;51.972;4.624;2023-04-21T05:06:47;82.75;;;33.75;;
35150;SDS011;55720;51.972;4.624;2023-04-21T05:09:12;92.18;;;34.22;;
35150;SDS011;55720;51.972;4.624;2023-04-21T05:11:37;94.00;;;32.85;;
35150;SDS011;55720;51.972;4.624;2023-04-21T05:14:03;85.80;;;34.20;;
35150;SDS011;55720;51.972;4.624;2023-04-21T05:16:28;91.13;;;34.38;;
35150;SDS011;55720;51.972;4.624;2023-04-21T05:18:53;88.40;;;33.00;;
35150;SDS011;55720;51.972;4.624;2023-04-21T05:21:23;96.95;;;34.42;;
35150;SDS011;55720;51.972;4.624;2023-04-21T05:23:51;85.72;;;33.33;;
35150;SDS011;55720;51.972;4.624;2023-04-21T05:26:17;94.72;;;33.13;;
35150;SDS011;55720;51.972;4.624;2023-04-21T05:28:43;94.13;;;35.90;;
35150;SDS011;55720;51.972;4.624;2023-04-21T05:31:08;88.97;;;35.47;;
35150;SDS011;55720;51.972;4.624;2023-04-21T05:33:33;86.72;;;34.10;;
35150;SDS011;55720;51.972;4.624;2023-04-21T05:35:59;90.30;;;32.95;;
35150;SDS011;55720;51.972;4.624;2023-04-21T05:38:24;84.65;;;33.03;;
35150;SDS011;55720;51.972;4.624;2023-04-21T05:40:52;92.97;;;35.33;;
35150;SDS011;55720;51.972;4.624;2023-04-21T05:43:20;91.32;;;35.08;;
35150;SDS011;55720;51.972;4.624;2023-04-21T05:45:47;95.28;;;35.95;;
35150;SDS011;55720;51.972;4.624;2023-04-21T05:48:12;94.57;;;37.80;;
35150;SDS011;55720;51.972;4.624;2023-04-21T05:50:37;93.32;;;37.10;;
35150;SDS011;55720;51.972;4.624;2023-04-21T05:53:03;89.55;;;36.60;;
35150;SDS011;55720;51.972;4.624;2023-04-21T05:55:28;86.63;;;36.20;;
35150;SDS011;55720;51.972;4.624;2023-04-21T05:57:54;92.90;;;36.70;;
35150;SDS011;55720;51.972;4.624;2023-04-21T06:00:19;85.97;;;36.33;;
35150;SDS011;55720;51.972;4.624;2023-04-21T06:02:44;84.70;;;35.92;;
35150;SDS011;55720;51.972;4.624;2023-04-21T06:05:10;83.43;;;35.00;;
35150;SDS011;55720;51.972;4.624;2023-04-21T06:07:35;85.50;;;35.47;;
35150;SDS011;55720;51.972;4.624;2023-04-21T06:10:01;86.38;;;34.88;;
35150;SDS011;55720;51.972;4.624;2023-04-21T06:12:28;81.38;;;34.63;;
35150;SDS011;55720;51.972;4.624;2023-04-21T06:14:53;79.43;;;33.75;;
35150;SDS011;55720;51.972;4.624;2023-04-21T06:17:21;84.88;;;34.25;;
35150;SDS011;55720;51.972;4.624;2023-04-21T06:19:47;86.70;;;36.42;;
35150;SDS011;55720;51.972;4.624;2023-04-21T06:22:17;84.93;;;36.78;;
35150;SDS011;55720;51.972;4.624;2023-04-21T06:24:45;81.55;;;35.55;;
35150;SDS011;55720;51.972;4.624;2023-04-21T06:27:11;82.68;;;35.38;;
35150;SDS011;55720;51.972;4.624;2023-04-21T06:29:37;75.05;;;34.17;;
35150;SDS011;55720;51.972;4.624;2023-04-21T06:32:02;76.50;;;36.10;;
35150;SDS011;55720;51.972;4.624;2023-04-21T06:34:28;82.18;;;36.10;;
35150;SDS011;55720;51.972;4.624;2023-04-21T06:36:53;81.78;;;35.75;;
35150;SDS011;55720;51.972;4.624;2023-04-21T06:39:19;78.53;;;35.08;;
35150;SDS011;55720;51.972;4.624;2023-04-21T06:41:44;76.00;;;35.17;;
35150;SDS011;55720;51.972;4.624;2023-04-21T06:44:10;72.00;;;34.33;;
35150;SDS011;55720;51.972;4.624;2023-04-21T06:46:38;72.65;;;35.95;;
35150;SDS011;55720;51.972;4.624;2023-04-21T06:49:07;77.82;;;35.67;;
35150;SDS011;55720;51.972;4.624;2023-04-21T06:51:32;78.72;;;36.10;;
35150;SDS011;55720;51.972;4.624;2023-04-21T06:53:58;71.13;;;34.40;;
35150;SDS011;55720;51.972;4.624;2023-04-21T06:56:25;73.78;;;34.88;;
35150;SDS011;55720;51.972;4.624;2023-04-21T06:58:51;77.03;;;35.63;;
35150;SDS011;55720;51.972;4.624;2023-04-21T07:01:17;80.38;;;37.58;;
35150;SDS011;55720;51.972;4.624;2023-04-21T07:03:42;77.72;;;36.75;;
35150;SDS011;55720;51.972;4.624;2023-04-21T07:06:07;82.20;;;37.42;;
35150;SDS011;55720;51.972;4.624;2023-04-21T07:08:33;74.70;;;37.05;;
35150;SDS011;55720;51.972;4.624;2023-04-21T07:10:58;70.93;;;35.63;;
35150;SDS011;55720;51.972;4.624;2023-04-21T07:13:23;73.32;;;35.42;;
35150;SDS011;55720;51.972;4.624;2023-04-21T07:15:49;83.25;;;37.22;;
35150;SDS011;55720;51.972;4.624;2023-04-21T07:18:14;81.95;;;37.80;;
35150;SDS011;55720;51.972;4.624;2023-04-21T07:20:40;78.55;;;36.67;;
35150;SDS011;55720;51.972;4.624;2023-04-21T07:23:05;75.57;;;35.85;;
35150;SDS011;55720;51.972;4.624;2023-04-21T07:25:31;77.03;;;36.47;;
35150;SDS011;55720;51.972;4.624;2023-04-21T07:27:56;76.00;;;37.63;;
35150;SDS011;55720;51.972;4.624;2023-04-21T07:30:21;77.75;;;37.25;;
35150;SDS011;55720;51.972;4.624;2023-04-21T07:32:47;77.03;;;36.90;;
35150;SDS011;55720;51.972;4.624;2023-04-21T07:35:12;69.95;;;35.25;;
35150;SDS011;55720;51.972;4.624;2023-04-21T07:37:37;68.80;;;34.60;;
35150;SDS011;55720;51.972;4.624;2023-04-21T07:40:04;70.15;;;35.28;;
35150;SDS011;55720;51.972;4.624;2023-04-21T07:42:31;73.55;;;36.88;;
35150;SDS011;55720;51.972;4.624;2023-04-21T07:44:57;71.78;;;36.85;;
35150;SDS011;55720;51.972;4.624;2023-04-21T07:47:25;67.25;;;34.53;;
35150;SDS011;55720;51.972;4.624;2023-04-21T07:49:50;69.13;;;34.50;;
35150;SDS011;55720;51.972;4.624;2023-04-21T07:52:15;57.05;;;32.15;;
35150;SDS011;55720;51.972;4.624;2023-04-21T07:54:41;56.10;;;32.08;;
35150;SDS011;55720;51.972;4.624;2023-04-21T07:57:06;58.42;;;32.22;;
35150;SDS011;55720;51.972;4.624;2023-04-21T07:59:32;55.95;;;33.28;;
35150;SDS011;55720;51.972;4.624;2023-04-21T08:01:57;55.28;;;31.27;;
35150;SDS011;55720;51.972;4.624;2023-04-21T08:04:23;55.00;;;31.42;;
35150;SDS011;55720;51.972;4.624;2023-04-21T08:06:48;57.65;;;32.25;;
35150;SDS011;55720;51.972;4.624;2023-04-21T08:09:13;53.90;;;30.95;;
35150;SDS011;55720;51.972;4.624;2023-04-21T08:11:39;55.22;;;31.67;;
35150;SDS011;55720;51.972;4.624;2023-04-21T08:14:04;54.97;;;32.63;;
35150;SDS011;55720;51.972;4.624;2023-04-21T08:16:29;57.17;;;31.38;;
35150;SDS011;55720;51.972;4.624;2023-04-21T08:18:55;51.17;;;30.10;;
35150;SDS011;55720;51.972;4.624;2023-04-21T08:21:20;51.72;;;30.40;;
35150;SDS011;55720;51.972;4.624;2023-04-21T08:23:46;50.05;;;31.63;;
35150;SDS011;55720;51.972;4.624;2023-04-21T08:26:11;46.13;;;28.40;;
35150;SDS011;55720;51.972;4.624;2023-04-21T08:28:37;43.92;;;28.08;;
35150;SDS011;55720;51.972;4.624;2023-04-21T08:31:02;44.15;;;28.48;;
35150;SDS011;55720;51.972;4.624;2023-04-21T08:33:28;41.47;;;27.45;;
35150;SDS011;55720;51.972;4.624;2023-04-21T08:35:54;42.50;;;27.65;;
35150;SDS011;55720;51.972;4.624;2023-04-21T08:38:19;45.17;;;28.95;;
35150;SDS011;55720;51.972;4.624;2023-04-21T08:40:44;45.75;;;28.38;;
35150;SDS011;55720;51.972;4.624;2023-04-21T08:43:10;42.88;;;27.75;;
35150;SDS011;55720;51.972;4.624;2023-04-21T08:45:35;46.22;;;28.38;;
35150;SDS011;55720;51.972;4.624;2023-04-21T08:48:03;43.67;;;27.00;;
35150;SDS011;55720;51.972;4.624;2023-04-21T08:50:29;38.35;;;25.70;;
35150;SDS011;55720;51.972;4.624;2023-04-21T08:52:56;40.67;;;26.23;;
35150;SDS011;55720;51.972;4.624;2023-04-21T08:55:25;36.15;;;23.88;;
35150;SDS011;55720;51.972;4.624;2023-04-21T08:57:53;39.30;;;24.88;;
35150;SDS011;55720;51.972;4.624;2023-04-21T09:00:18;37.13;;;23.95;;
35150;SDS011;55720;51.972;4.624;2023-04-21T09:02:57;34.08;;;23.50;;
35150;SDS011;55720;51.972;4.624;2023-04-21T09:05:25;36.20;;;23.95;;
35150;SDS011;55720;51.972;4.624;2023-04-21T09:10:47;38.78;;;24.90;;
35150;SDS011;55720;51.972;4.624;2023-04-21T09:13:13;37.83;;;25.15;;
35150;SDS011;55720;51.972;4.624;2023-04-21T09:15:40;41.40;;;25.98;;
35150;SDS011;55720;51.972;4.624;2023-04-21T09:18:14;37.63;;;25.40;;
35150;SDS011;55720;51.972;4.624;2023-04-21T09:20:44;41.00;;;25.08;;
35150;SDS011;55720;51.972;4.624;2023-04-21T09:23:11;34.55;;;23.42;;
35150;SDS011;55720;51.972;4.624;2023-04-21T09:25:40;35.35;;;23.40;;
35150;SDS011;55720;51.972;4.624;2023-04-21T09:28:08;33.53;;;23.50;;
35150;SDS011;55720;51.972;4.624;2023-04-21T09:30:37;34.22;;;22.05;;
35150;SDS011;55720;51.972;4.624;2023-04-21T09:33:04;30.90;;;21.10;;
35150;SDS011;55720;51.972;4.624;2023-04-21T09:35:33;32.10;;;21.83;;
35150;SDS011;55720;51.972;4.624;2023-04-21T09:40:27;30.75;;;19.83;;
35150;SDS011;55720;51.972;4.624;2023-04-21T09:42:56;28.23;;;18.95;;
35150;SDS011;55720;51.972;4.624;2023-04-21T09:45:23;27.42;;;19.58;;
35150;SDS011;55720;51.972;4.624;2023-04-21T09:47:50;26.00;;;18.38;;
35150;SDS011;55720;51.972;4.624;2023-04-21T09:50:20;25.73;;;18.58;;
35150;SDS011;55720;51.972;4.624;2023-04-21T09:52:48;27.67;;;19.08;;
35150;SDS011;55720;51.972;4.624;2023-04-21T09:55:15;27.90;;;20.08;;
35150;SDS011;55720;51.972;4.624;2023-04-21T09:57:42;25.92;;;18.88;;
35150;SDS011;55720;51.972;4.624;2023-04-21T10:00:11;30.00;;;20.15;;
35150;SDS011;55720;51.972;4.624;2023-04-21T10:02:41;27.48;;;19.33;;
35150;SDS011;55720;51.972;4.624;2023-04-21T10:05:08;28.45;;;19.10;;
35150;SDS011;55720;51.972;4.624;2023-04-21T10:07:35;28.88;;;20.38;;
35150;SDS011;55720;51.972;4.624;2023-04-21T10:10:00;28.65;;;19.42;;
35150;SDS011;55720;51.972;4.624;2023-04-21T10:12:26;24.60;;;17.48;;
35150;SDS011;55720;51.972;4.624;2023-04-21T10:14:52;23.33;;;16.63;;
35150;SDS011;55720;51.972;4.624;2023-04-21T10:17:23;24.67;;;16.23;;
35150;SDS011;55720;51.972;4.624;2023-04-21T10:19:51;23.42;;;16.25;;
35150;SDS011;55720;51.972;4.624;2023-04-21T10:22:28;22.48;;;17.13;;
35150;SDS011;55720;51.972;4.624;2023-04-21T10:24:55;21.83;;;16.45;;
35150;SDS011;55720;51.972;4.624;2023-04-21T10:27:31;23.10;;;16.73;;
35150;SDS011;55720;51.972;4.624;2023-04-21T10:29:58;25.42;;;17.27;;
35150;SDS011;55720;51.972;4.624;2023-04-21T10:32:38;22.92;;;16.70;;
35150;SDS011;55720;51.972;4.624;2023-04-21T10:35:04;23.27;;;17.00;;
35150;SDS011;55720;51.972;4.624;2023-04-21T10:37:33;23.25;;;17.02;;
35150;SDS011;55720;51.972;4.624;2023-04-21T10:39:58;22.77;;;15.95;;
35150;SDS011;55720;51.972;4.624;2023-04-21T10:42:25;21.38;;;15.85;;
35150;SDS011;55720;51.972;4.624;2023-04-21T10:47:28;21.60;;;15.02;;
35150;SDS011;55720;51.972;4.624;2023-04-21T10:50:09;24.95;;;16.08;;
35150;SDS011;55720;51.972;4.624;2023-04-21T10:52:36;19.55;;;15.48;;
35150;SDS011;55720;51.972;4.624;2023-04-21T10:55:05;20.13;;;15.20;;
35150;SDS011;55720;51.972;4.624;2023-04-21T10:57:34;20.50;;;16.30;;
35150;SDS011;55720;51.972;4.624;2023-04-21T11:00:00;22.70;;;17.38;;
35150;SDS011;55720;51.972;4.624;2023-04-21T11:02:30;21.52;;;15.73;;
35150;SDS011;55720;51.972;4.624;2023-04-21T11:04:56;19.92;;;15.70;;
35150;SDS011;55720;51.972;4.624;2023-04-21T11:07:22;21.48;;;15.45;;
35150;SDS011;55720;51.972;4.624;2023-04-21T11:09:59;19.80;;;15.57;;
35150;SDS011;55720;51.972;4.624;2023-04-21T11:12:40;19.08;;;15.10;;
35150;SDS011;55720;51.972;4.624;2023-04-21T11:15:07;20.52;;;15.05;;
35150;SDS011;55720;51.972;4.624;2023-04-21T11:17:34;17.60;;;14.75;;
35150;SDS011;55720;51.972;4.624;2023-04-21T11:20:01;23.38;;;16.30;;
35150;SDS011;55720;51.972;4.624;2023-04-21T11:22:30;25.10;;;15.32;;
35150;SDS011;55720;51.972;4.624;2023-04-21T11:24:56;20.40;;;16.52;;
35150;SDS011;55720;51.972;4.624;2023-04-21T11:27:24;20.63;;;15.25;;
35150;SDS011;55720;51.972;4.624;2023-04-21T11:30:16;19.70;;;15.88;;
35150;SDS011;55720;51.972;4.624;2023-04-21T11:32:42;18.58;;;15.32;;
35150;SDS011;55720;51.972;4.624;2023-04-21T11:35:07;18.92;;;15.23;;
35150;SDS011;55720;51.972;4.624;2023-04-21T11:37:33;17.25;;;14.85;;
35150;SDS011;55720;51.972;4.624;2023-04-21T11:39:58;17.98;;;15.88;;
35150;SDS011;55720;51.972;4.624;2023-04-21T11:42:24;20.52;;;16.25;;
35150;SDS011;55720;51.972;4.624;2023-04-21T11:44:52;22.98;;;17.13;;
35150;SDS011;55720;51.972;4.624;2023-04-21T11:47:22;22.73;;;16.92;;
35150;SDS011;55720;51.972;4.624;2023-04-21T11:49:52;24.40;;;17.92;;
35150;SDS011;55720;51.972;4.624;2023-04-21T11:54:45;20.30;;;16.40;;
35150;SDS011;55720;51.972;4.624;2023-04-21T11:57:10;22.67;;;15.93;;
35150;SDS011;55720;51.972;4.624;2023-04-21T11:59:36;20.90;;;16.63;;
35150;SDS011;55720;51.972;4.624;2023-04-21T12:02:02;24.25;;;18.27;;
35150;SDS011;55720;51.972;4.624;2023-04-21T12:04:27;19.98;;;16.77;;
35150;SDS011;55720;51.972;4.624;2023-04-21T12:09:21;18.88;;;16.02;;
35150;SDS011;55720;51.972;4.624;2023-04-21T12:11:47;21.10;;;15.93;;
35150;SDS011;55720;51.972;4.624;2023-04-21T12:16:43;20.35;;;16.45;;
35150;SDS011;55720;51.972;4.624;2023-04-21T12:19:08;22.02;;;16.98;;
35150;SDS011;55720;51.972;4.624;2023-04-21T12:21:36;22.48;;;16.77;;
35150;SDS011;55720;51.972;4.624;2023-04-21T12:24:03;20.67;;;16.13;;
35150;SDS011;55720;51.972;4.624;2023-04-21T12:26:29;17.67;;;15.38;;
35150;SDS011;55720;51.972;4.624;2023-04-21T12:28:54;19.67;;;15.52;;
35150;SDS011;55720;51.972;4.624;2023-04-21T12:31:20;19.60;;;15.55;;
35150;SDS011;55720;51.972;4.624;2023-04-21T12:33:45;18.92;;;14.70;;
35150;SDS011;55720;51.972;4.624;2023-04-21T12:36:11;19.63;;;14.85;;
35150;SDS011;55720;51.972;4.624;2023-04-21T12:38:36;18.48;;;14.57;;
35150;SDS011;55720;51.972;4.624;2023-04-21T12:41:02;17.02;;;13.98;;
35150;SDS011;55720;51.972;4.624;2023-04-21T12:43:28;19.27;;;14.77;;
35150;SDS011;55720;51.972;4.624;2023-04-21T12:45:53;17.67;;;14.48;;
35150;SDS011;55720;51.972;4.624;2023-04-21T12:48:19;18.38;;;14.35;;
35150;SDS011;55720;51.972;4.624;2023-04-21T12:50:44;18.23;;;13.65;;
35150;SDS011;55720;51.972;4.624;2023-04-21T12:53:11;18.23;;;13.30;;
35150;SDS011;55720;51.972;4.624;2023-04-21T12:55:36;18.50;;;13.25;;
35150;SDS011;55720;51.972;4.624;2023-04-21T12:58:02;13.07;;;11.35;;
35150;SDS011;55720;51.972;4.624;2023-04-21T13:00:27;14.00;;;11.60;;
35150;SDS011;55720;51.972;4.624;2023-04-21T13:02:53;16.42;;;12.27;;
35150;SDS011;55720;51.972;4.624;2023-04-21T13:05:18;17.02;;;12.68;;
35150;SDS011;55720;51.972;4.624;2023-04-21T13:07:44;14.80;;;12.40;;
35150;SDS011;55720;51.972;4.624;2023-04-21T13:10:09;16.35;;;12.20;;
35150;SDS011;55720;51.972;4.624;2023-04-21T13:12:35;16.25;;;10.85;;
35150;SDS011;55720;51.972;4.624;2023-04-21T13:15:01;18.65;;;13.13;;
35150;SDS011;55720;51.972;4.624;2023-04-21T13:17:26;19.95;;;14.20;;
35150;SDS011;55720;51.972;4.624;2023-04-21T13:19:52;19.08;;;14.80;;
35150;SDS011;55720;51.972;4.624;2023-04-21T13:22:17;17.83;;;13.57;;
35150;SDS011;55720;51.972;4.624;2023-04-21T13:24:43;16.45;;;12.88;;
35150;SDS011;55720;51.972;4.624;2023-04-21T13:27:08;15.82;;;13.52;;
35150;SDS011;55720;51.972;4.624;2023-04-21T13:29:34;15.82;;;13.45;;
35150;SDS011;55720;51.972;4.624;2023-04-21T13:32:00;15.27;;;12.25;;
35150;SDS011;55720;51.972;4.624;2023-04-21T13:34:26;16.55;;;11.80;;
35150;SDS011;55720;51.972;4.624;2023-04-21T13:36:52;15.68;;;12.88;;
35150;SDS011;55720;51.972;4.624;2023-04-21T13:39:17;19.38;;;13.98;;
35150;SDS011;55720;51.972;4.624;2023-04-21T13:41:43;20.70;;;14.85;;
35150;SDS011;55720;51.972;4.624;2023-04-21T13:44:09;15.75;;;13.15;;
35150;SDS011;55720;51.972;4.624;2023-04-21T13:46:34;18.90;;;13.73;;
35150;SDS011;55720;51.972;4.624;2023-04-21T13:49:00;19.38;;;14.18;;
35150;SDS011;55720;51.972;4.624;2023-04-21T13:51:25;17.88;;;13.73;;
35150;SDS011;55720;51.972;4.624;2023-04-21T13:53:50;19.17;;;14.63;;
35150;SDS011;55720;51.972;4.624;2023-04-21T13:56:16;18.48;;;14.45;;
35150;SDS011;55720;51.972;4.624;2023-04-21T13:58:41;17.02;;;13.88;;
35150;SDS011;55720;51.972;4.624;2023-04-21T14:01:07;19.23;;;14.45;;
35150;SDS011;55720;51.972;4.624;2023-04-21T14:03:32;20.75;;;14.38;;
35150;SDS011;55720;51.972;4.624;2023-04-21T14:05:58;18.60;;;14.35;;
35150;SDS011;55720;51.972;4.624;2023-04-21T14:08:23;23.95;;;15.93;;
35150;SDS011;55720;51.972;4.624;2023-04-21T14:10:49;20.52;;;15.15;;
35150;SDS011;55720;51.972;4.624;2023-04-21T14:13:14;25.15;;;14.75;;
35150;SDS011;55720;51.972;4.624;2023-04-21T14:15:39;22.13;;;15.75;;
35150;SDS011;55720;51.972;4.624;2023-04-21T14:18:05;21.40;;;16.90;;
35150;SDS011;55720;51.972;4.624;2023-04-21T14:20:30;20.00;;;15.43;;
35150;SDS011;55720;51.972;4.624;2023-04-21T14:22:56;21.27;;;14.52;;
35150;SDS011;55720;51.972;4.624;2023-04-21T14:25:21;16.60;;;13.50;;
35150;SDS011;55720;51.972;4.624;2023-04-21T14:27:46;23.80;;;14.90;;
35150;SDS011;55720;51.972;4.624;2023-04-21T14:30:12;19.42;;;15.48;;
35150;SDS011;55720;51.972;4.624;2023-04-21T14:32:38;23.67;;;15.43;;